Time;durP1;ratioP1;P1;durP2;ratioP2;P2;SDS_P1;SDS_P2;PMS_P1;PMS_P2;Temp;Humidity;BMP_temperature;BMP_pressure;BME280_temperature;BME280_humidity;BME280_pressure;Samples;Min_cycle;Max_cycle;Signal;HPM_P1;HPM_P2
2023/12/06 00:01:26;;;;;;;;;;;;;;;3.62;100.00;94850.41;4192091;34;20014;-65
2023/12/06 00:03:51;;;;;;;;;;;;;;;3.49;100.00;94850.91;4176569;34;20010;-65
2023/12/06 00:06:17;;;;;;;;;;;;;;;3.61;100.00;94844.38;4176809;34;20023;-66
2023/12/06 00:08:42;;;;;;;;;;;;;;;3.73;100.00;94842.28;4171993;34;20007;-65
2023/12/06 00:11:07;;;;;;;;;;;;;;;3.62;100.00;94842.53;4174892;34;20075;-65
2023/12/06 00:13:33;;;;;;;;;;;;;;;3.67;100.00;94839.91;4172440;34;20003;-65
2023/12/06 00:15:58;;;;;;;;;;;;;;;3.59;100.00;94829.94;4182437;34;20039;-65
2023/12/06 00:18:24;;;;;;;;;;;;;;;3.50;100.00;94836.75;4169278;34;20027;-65
2023/12/06 00:20:49;;;;;;;;;;;;;;;3.48;100.00;94831.00;4170144;34;20056;-65
2023/12/06 00:23:15;;;;;;;;;;;;;;;3.55;100.00;94836.75;4190942;34;20011;-65
2023/12/06 00:25:40;;;;;;;;;;;;;;;3.68;100.00;94834.41;4190246;34;20001;-65
2023/12/06 00:28:06;;;;;;;;;;;;;;;3.73;100.00;94837.03;4178671;34;20045;-66
2023/12/06 00:30:31;;;;;;;;;;;;;;;3.79;100.00;94835.97;4189470;34;20024;-65
2023/12/06 00:32:56;;;;;;;;;;;;;;;3.91;100.00;94829.69;4178899;34;20020;-66
2023/12/06 00:35:21;;;;;;;;;;;;;;;4.03;100.00;94825.75;4189134;34;20012;-66
2023/12/06 00:37:47;;;;;;;;;;;;;;;3.99;100.00;94837.81;4173166;34;20020;-66
2023/12/06 00:40:12;;;;;;;;;;;;;;;3.98;100.00;94838.84;4184522;34;20008;-65
2023/12/06 00:42:37;;;;;;;;;;;;;;;4.12;100.00;94842.53;4195274;34;20026;-65
2023/12/06 00:45:03;;;;;;;;;;;;;;;4.03;100.00;94844.09;4191696;34;20010;-65
2023/12/06 00:47:28;;;;;;;;;;;;;;;4.00;100.00;94836.75;4178027;34;20073;-65
2023/12/06 00:49:54;;;;;;;;;;;;;;;4.10;100.00;94844.62;4191703;34;20032;-66
2023/12/06 00:52:19;;;;;;;;;;;;;;;3.97;100.00;94846.97;4189190;34;20020;-66
2023/12/06 00:54:45;;;;;;;;;;;;;;;3.87;100.00;94842.53;4188560;34;20061;-66
2023/12/06 00:57:10;;;;;;;;;;;;;;;4.06;100.00;94837.53;4188403;34;20042;-65
2023/12/06 00:59:36;;;;;;;;;;;;;;;4.01;100.00;94848.03;4189810;34;20008;-66
2023/12/06 01:02:01;;;;;;;;;;;;;;;4.12;100.00;94834.66;4181894;34;20058;-65
2023/12/06 01:04:26;;;;;;;;;;;;;;;4.11;100.00;94838.34;4187180;34;20015;-66
2023/12/06 01:06:51;;;;;;;;;;;;;;;4.06;100.00;94840.16;4184968;34;20009;-66
2023/12/06 01:09:17;;;;;;;;;;;;;;;4.22;100.00;94849.59;4186026;34;20005;-66
2023/12/06 01:11:42;;;;;;;;;;;;;;;4.35;100.00;94843.81;4191148;34;20022;-65
2023/12/06 01:14:07;;;;;;;;;;;;;;;4.31;100.00;94849.84;4188040;34;20018;-65
2023/12/06 01:16:32;;;;;;;;;;;;;;;4.30;100.00;94848.28;4151177;34;20058;-65
2023/12/06 01:18:58;;;;;;;;;;;;;;;4.26;100.00;94844.59;4183405;34;20112;-66
2023/12/06 01:21:23;;;;;;;;;;;;;;;4.42;100.00;94838.28;4191570;34;20088;-65
2023/12/06 01:23:48;;;;;;;;;;;;;;;4.38;100.00;94842.47;4183398;34;20006;-65
2023/12/06 01:26:14;;;;;;;;;;;;;;;4.34;100.00;94841.44;4189569;34;20028;-65
2023/12/06 01:28:39;;;;;;;;;;;;;;;4.38;100.00;94847.72;4176174;34;20017;-66
2023/12/06 01:31:04;;;;;;;;;;;;;;;4.50;100.00;94845.62;4186618;34;20031;-65
2023/12/06 01:33:29;;;;;;;;;;;;;;;4.44;100.00;94847.47;4177045;34;20063;-65
2023/12/06 01:35:54;;;;;;;;;;;;;;;4.43;100.00;94847.72;4183551;34;20136;-66
2023/12/06 01:38:20;;;;;;;;;;;;;;;4.44;100.00;94852.72;4181938;34;20048;-65
2023/12/06 01:40:45;;;;;;;;;;;;;;;4.42;100.00;94844.31;4170090;34;20026;-65
2023/12/06 01:43:10;;;;;;;;;;;;;;;4.47;100.00;94854.03;4166036;34;20033;-65
2023/12/06 01:45:36;;;;;;;;;;;;;;;4.17;100.00;94852.22;4173707;34;20007;-65
2023/12/06 01:48:02;;;;;;;;;;;;;;;4.11;100.00;94853.28;4175150;34;20007;-65
2023/12/06 01:50:28;;;;;;;;;;;;;;;4.33;100.00;94851.16;4174778;34;20039;-65
2023/12/06 01:52:57;;;;;;;;;;;;;;;4.33;100.00;94855.63;4176959;34;20024;-65
2023/12/06 01:55:22;;;;;;;;;;;;;;;4.31;100.00;94852.47;4176297;34;20052;-65
2023/12/06 01:57:48;;;;;;;;;;;;;;;4.21;100.00;94858.53;4166222;34;20026;-65
2023/12/06 02:00:15;;;;;;;;;;;;;;;4.14;100.00;94852.78;4188930;34;20048;-65
2023/12/06 02:02:40;;;;;;;;;;;;;;;4.11;100.00;94853.28;4190896;34;20012;-65
2023/12/06 02:05:06;;;;;;;;;;;;;;;4.19;100.00;94858.00;4173066;34;20018;-65
2023/12/06 02:07:32;;;;;;;;;;;;;;;4.00;100.00;94852.50;4171444;34;20046;-65
2023/12/06 02:09:59;;;;;;;;;;;;;;;4.16;100.00;94849.88;4162652;34;20035;-65
2023/12/06 02:12:24;;;;;;;;;;;;;;;4.12;100.00;94863.53;4169291;34;20020;-65
2023/12/06 02:14:49;;;;;;;;;;;;;;;3.98;100.00;94872.19;4181180;33;20013;-65
2023/12/06 02:17:15;;;;;;;;;;;;;;;4.09;100.00;94866.69;4172625;34;20060;-65
2023/12/06 02:19:40;;;;;;;;;;;;;;;4.16;100.00;94858.50;4168680;34;20026;-65
2023/12/06 02:22:06;;;;;;;;;;;;;;;4.10;100.00;94867.47;4165693;34;20111;-65
2023/12/06 02:24:34;;;;;;;;;;;;;;;4.11;100.00;94869.03;4155641;34;20035;-65
2023/12/06 02:26:59;;;;;;;;;;;;;;;4.16;100.00;94863.00;4164765;34;20029;-65
2023/12/06 02:29:24;;;;;;;;;;;;;;;4.12;100.00;94868.78;4184727;34;20036;-65
2023/12/06 02:31:49;;;;;;;;;;;;;;;3.98;100.00;94862.47;4183384;34;20016;-65
2023/12/06 02:34:17;;;;;;;;;;;;;;;4.05;100.00;94859.59;4146348;34;20016;-65
2023/12/06 02:36:44;;;;;;;;;;;;;;;4.15;100.00;94864.84;4165050;34;20044;-65
2023/12/06 02:39:10;;;;;;;;;;;;;;;4.19;100.00;94860.62;4180742;34;20032;-65
2023/12/06 02:41:35;;;;;;;;;;;;;;;4.22;100.00;94862.72;4175626;34;20076;-65
2023/12/06 02:44:00;;;;;;;;;;;;;;;4.22;100.00;94860.09;4164009;34;20012;-65
2023/12/06 02:46:26;;;;;;;;;;;;;;;4.08;100.00;94854.59;4180582;34;20017;-65
2023/12/06 02:48:51;;;;;;;;;;;;;;;4.10;100.00;94860.38;4189363;34;20155;-65
2023/12/06 02:51:17;;;;;;;;;;;;;;;3.95;100.00;94855.13;4183329;34;20085;-65
2023/12/06 02:53:42;;;;;;;;;;;;;;;4.06;100.00;94853.28;4180933;34;20058;-65
2023/12/06 02:56:07;;;;;;;;;;;;;;;3.93;100.00;94846.75;4142738;34;20019;-65
2023/12/06 02:58:32;;;;;;;;;;;;;;;4.15;100.00;94851.72;4157546;34;20016;-65
2023/12/06 03:00:58;;;;;;;;;;;;;;;4.20;100.00;94853.53;4162871;34;20018;-65
2023/12/06 03:03:23;;;;;;;;;;;;;;;4.19;100.00;94859.81;4168865;34;20044;-65
2023/12/06 03:05:48;;;;;;;;;;;;;;;4.10;100.00;94864.84;4172834;34;20001;-65
2023/12/06 03:08:14;;;;;;;;;;;;;;;4.25;100.00;94856.16;4169270;34;20028;-65
2023/12/06 03:10:39;;;;;;;;;;;;;;;3.99;100.00;94866.66;4165661;34;20007;-65
2023/12/06 03:13:04;;;;;;;;;;;;;;;3.86;100.00;94871.66;4176555;34;20014;-65
2023/12/06 03:15:30;;;;;;;;;;;;;;;3.94;100.00;94860.66;4179051;34;20071;-65
2023/12/06 03:17:59;;;;;;;;;;;;;;;4.19;100.00;94857.22;4190518;34;20014;-65
2023/12/06 03:20:24;;;;;;;;;;;;;;;4.11;100.00;94864.59;4168546;34;20019;-65
2023/12/06 03:22:49;;;;;;;;;;;;;;;4.02;100.00;94865.34;4175256;34;20029;-65
2023/12/06 03:25:14;;;;;;;;;;;;;;;4.09;100.00;94866.69;4170420;34;20058;-65
2023/12/06 03:27:42;;;;;;;;;;;;;;;4.07;100.00;94865.38;4177863;34;20027;-65
2023/12/06 03:30:07;;;;;;;;;;;;;;;3.94;100.00;94871.94;4177172;34;20011;-65
2023/12/06 03:32:33;;;;;;;;;;;;;;;3.99;100.00;94871.91;4167933;34;20066;-65
2023/12/06 03:34:58;;;;;;;;;;;;;;;4.00;100.00;94872.69;4165916;34;20017;-65
2023/12/06 03:37:23;;;;;;;;;;;;;;;4.11;100.00;94872.44;4180850;34;20020;-65
2023/12/06 03:39:48;;;;;;;;;;;;;;;3.73;100.00;94876.38;4176824;34;20064;-65
2023/12/06 03:42:14;;;;;;;;;;;;;;;3.74;100.00;94870.06;4176148;34;20034;-65
2023/12/06 03:44:39;;;;;;;;;;;;;;;3.94;100.00;94877.19;4180595;34;20008;-65
2023/12/06 03:47:04;;;;;;;;;;;;;;;3.99;100.00;94879.78;4156944;34;20140;-65
2023/12/06 03:49:30;;;;;;;;;;;;;;;4.02;100.00;94871.41;4166396;34;20070;-65
2023/12/06 03:51:55;;;;;;;;;;;;;;;3.82;100.00;94875.84;4184779;34;20015;-65
2023/12/06 03:54:20;;;;;;;;;;;;;;;3.86;100.00;94872.44;4179346;34;20007;-65
2023/12/06 03:56:45;;;;;;;;;;;;;;;3.97;100.00;94876.63;4177117;34;20030;-65
2023/12/06 03:59:11;;;;;;;;;;;;;;;3.86;100.00;94877.69;4156926;34;20021;-65
2023/12/06 04:01:36;;;;;;;;;;;;;;;3.90;100.00;94878.75;4181576;34;20022;-65
2023/12/06 04:04:01;;;;;;;;;;;;;;;3.95;100.00;94881.34;4186864;34;20050;-65
2023/12/06 04:06:26;;;;;;;;;;;;;;;3.91;100.00;94880.34;4191524;34;20028;-65
2023/12/06 04:08:52;;;;;;;;;;;;;;;4.06;100.00;94872.44;4171131;34;20038;-65
2023/12/06 04:11:17;;;;;;;;;;;;;;;4.00;100.00;94877.94;4166624;34;20007;-64
2023/12/06 04:13:42;;;;;;;;;;;;;;;3.86;100.00;94876.91;4178553;34;20009;-64
2023/12/06 04:16:07;;;;;;;;;;;;;;;3.93;100.00;94883.47;4166624;34;20021;-64
2023/12/06 04:18:32;;;;;;;;;;;;;;;3.99;100.00;94871.91;4177277;34;20050;-64
2023/12/06 04:20:58;;;;;;;;;;;;;;;4.13;100.00;94882.69;4169100;34;20015;-64
2023/12/06 04:23:24;;;;;;;;;;;;;;;4.13;100.00;94882.69;4182726;34;20031;-64
2023/12/06 04:25:50;;;;;;;;;;;;;;;4.17;100.00;94880.31;4154581;34;20007;-66
2023/12/06 04:28:15;;;;;;;;;;;;;;;4.18;100.00;94880.03;4168802;34;20028;-67
2023/12/06 04:30:40;;;;;;;;;;;;;;;4.01;100.00;94879.53;4169329;34;20043;-64
2023/12/06 04:33:05;;;;;;;;;;;;;;;4.03;100.00;94880.84;4182177;34;20013;-64
2023/12/06 04:35:30;;;;;;;;;;;;;;;4.08;100.00;94882.69;4176516;34;20029;-64
2023/12/06 04:37:56;;;;;;;;;;;;;;;4.12;100.00;94891.63;4171462;34;20066;-65
2023/12/06 04:40:21;;;;;;;;;;;;;;;4.02;100.00;94887.13;4142478;34;20012;-65
2023/12/06 04:42:46;;;;;;;;;;;;;;;3.84;100.00;94890.28;4183956;34;20097;-65
2023/12/06 04:45:11;;;;;;;;;;;;;;;3.88;100.00;94886.09;4168960;34;20058;-65
2023/12/06 04:47:36;;;;;;;;;;;;;;;3.89;100.00;94892.13;4144684;34;20066;-65
2023/12/06 04:50:03;;;;;;;;;;;;;;;3.99;100.00;94895.53;4180815;34;20060;-65
2023/12/06 04:52:28;;;;;;;;;;;;;;;3.98;100.00;94886.09;4187627;34;20033;-65
2023/12/06 04:54:53;;;;;;;;;;;;;;;3.94;100.00;94892.13;4175906;34;20023;-65
2023/12/06 04:57:19;;;;;;;;;;;;;;;3.96;100.00;94901.31;4175535;34;20015;-65
2023/12/06 04:59:44;;;;;;;;;;;;;;;3.79;100.00;94898.16;4169206;34;20035;-65
2023/12/06 05:02:09;;;;;;;;;;;;;;;3.93;100.00;94908.94;4189010;34;20004;-65
2023/12/06 05:04:34;;;;;;;;;;;;;;;3.80;100.00;94908.38;4172345;34;20018;-65
2023/12/06 05:07:00;;;;;;;;;;;;;;;3.76;100.00;94906.53;4172697;34;20007;-65
2023/12/06 05:09:25;;;;;;;;;;;;;;;3.94;100.00;94905.25;4171393;34;20033;-65
2023/12/06 05:11:50;;;;;;;;;;;;;;;4.10;100.00;94902.37;4175689;34;20024;-65
2023/12/06 05:14:15;;;;;;;;;;;;;;;4.10;100.00;94904.22;4168403;34;20020;-65
2023/12/06 05:16:40;;;;;;;;;;;;;;;3.95;100.00;94912.84;4185679;34;20020;-65
2023/12/06 05:19:06;;;;;;;;;;;;;;;3.85;100.00;94912.06;4149637;34;20037;-65
2023/12/06 05:21:31;;;;;;;;;;;;;;;3.92;100.00;94910.75;4148184;34;20016;-65
2023/12/06 05:23:56;;;;;;;;;;;;;;;3.98;100.00;94914.94;4159994;34;20063;-65
2023/12/06 05:26:24;;;;;;;;;;;;;;;4.04;100.00;94906.03;4170355;34;20011;-65
2023/12/06 05:28:49;;;;;;;;;;;;;;;3.99;100.00;94908.66;4174164;34;20050;-65
2023/12/06 05:31:14;;;;;;;;;;;;;;;3.89;100.00;94913.12;4174111;34;20044;-65
2023/12/06 05:33:40;;;;;;;;;;;;;;;3.82;100.00;94907.34;4153776;34;20033;-65
2023/12/06 05:36:09;;;;;;;;;;;;;;;3.99;100.00;94908.66;4184742;34;20025;-65
2023/12/06 05:38:35;;;;;;;;;;;;;;;3.77;100.00;94905.47;4163983;34;20074;-65
2023/12/06 05:41:00;;;;;;;;;;;;;;;3.93;100.00;94907.09;4161545;34;20014;-65
2023/12/06 05:43:25;;;;;;;;;;;;;;;3.93;100.00;94912.34;4154191;34;20033;-65
2023/12/06 05:45:50;;;;;;;;;;;;;;;3.98;100.00;94907.06;4168295;34;20020;-65
2023/12/06 05:48:16;;;;;;;;;;;;;;;3.76;100.00;94903.91;4139104;34;20018;-65
2023/12/06 05:50:41;;;;;;;;;;;;;;;3.89;100.00;94911.28;4165885;34;20030;-65
2023/12/06 05:53:06;;;;;;;;;;;;;;;3.74;100.00;94909.41;4181653;34;20025;-65
2023/12/06 05:55:31;;;;;;;;;;;;;;;3.99;100.00;94908.66;4174350;34;20051;-65
2023/12/06 05:57:56;;;;;;;;;;;;;;;3.73;100.00;94920.19;4173247;34;20019;-65
2023/12/06 06:00:24;;;;;;;;;;;;;;;3.80;100.00;94912.84;4183574;34;20047;-65
2023/12/06 06:02:49;;;;;;;;;;;;;;;3.81;100.00;94906.53;4177136;34;20008;-65
2023/12/06 06:05:16;;;;;;;;;;;;;;;3.82;100.00;94915.19;4160303;34;20049;-65
2023/12/06 06:07:41;;;;;;;;;;;;;;;3.89;100.00;94913.91;4175462;34;20044;-65
2023/12/06 06:10:07;;;;;;;;;;;;;;;3.87;100.00;94916.00;4158094;34;20006;-65
2023/12/06 06:12:33;;;;;;;;;;;;;;;3.83;100.00;94914.94;4172190;34;20064;-65
2023/12/06 06:14:58;;;;;;;;;;;;;;;3.81;100.00;94917.03;4187956;34;20082;-65
2023/12/06 06:17:23;;;;;;;;;;;;;;;3.73;100.00;94914.94;4173818;34;20012;-65
2023/12/06 06:19:49;;;;;;;;;;;;;;;3.73;100.00;94913.09;4154416;34;20085;-65
2023/12/06 06:22:14;;;;;;;;;;;;;;;3.51;100.00;94917.00;4184251;34;20051;-65
2023/12/06 06:24:39;;;;;;;;;;;;;;;3.73;100.00;94920.97;4184465;34;20019;-65
2023/12/06 06:27:04;;;;;;;;;;;;;;;3.76;100.00;94914.41;4185003;34;20039;-65
2023/12/06 06:29:30;;;;;;;;;;;;;;;3.92;100.00;94916.00;4176678;34;20023;-65
2023/12/06 06:31:55;;;;;;;;;;;;;;;3.91;100.00;94924.94;4186827;34;20006;-65
2023/12/06 06:34:20;;;;;;;;;;;;;;;3.87;100.00;94920.47;4191222;34;20006;-65
2023/12/06 06:36:45;;;;;;;;;;;;;;;3.89;100.00;94919.16;4179072;34;20007;-65
2023/12/06 06:39:12;;;;;;;;;;;;;;;3.86;100.00;94924.91;4184335;34;20051;-65
2023/12/06 06:41:39;;;;;;;;;;;;;;;3.82;100.00;94923.84;4170634;34;20020;-65
2023/12/06 06:44:05;;;;;;;;;;;;;;;3.79;100.00;94932.25;4177133;34;20018;-65
2023/12/06 06:46:30;;;;;;;;;;;;;;;3.73;100.00;94925.44;4189928;34;20009;-65
2023/12/06 06:48:56;;;;;;;;;;;;;;;3.93;100.00;94929.91;4172955;34;20005;-65
2023/12/06 06:51:30;;;;;;;;;;;;;;;3.75;100.00;94933.81;4175266;34;20072;-65
2023/12/06 06:53:55;;;;;;;;;;;;;;;3.84;100.00;94929.62;4177241;34;20064;-65
2023/12/06 06:56:20;;;;;;;;;;;;;;;3.63;100.00;94923.56;4185653;34;20026;-65
2023/12/06 06:58:46;;;;;;;;;;;;;;;3.77;100.00;94926.47;4172516;34;20023;-65
2023/12/06 07:01:12;;;;;;;;;;;;;;;3.67;100.00;94937.75;4172627;34;20062;-65
2023/12/06 07:03:37;;;;;;;;;;;;;;;3.66;100.00;94927.50;4172558;34;20001;-65
2023/12/06 07:06:03;;;;;;;;;;;;;;;3.68;100.00;94933.28;4174131;34;20042;-65
2023/12/06 07:08:29;;;;;;;;;;;;;;;3.82;100.00;94936.97;4182812;34;20062;-65
2023/12/06 07:10:55;;;;;;;;;;;;;;;3.71;100.00;94938.00;4178104;34;20015;-65
2023/12/06 07:13:22;;;;;;;;;;;;;;;3.79;100.00;94946.16;4178731;34;20034;-65
2023/12/06 07:15:47;;;;;;;;;;;;;;;3.93;100.00;94951.69;4174553;34;20100;-65
2023/12/06 07:18:12;;;;;;;;;;;;;;;3.82;100.00;94950.09;4175607;34;20052;-65
2023/12/06 07:20:38;;;;;;;;;;;;;;;3.72;100.00;94947.47;4186015;34;20072;-65
2023/12/06 07:23:03;;;;;;;;;;;;;;;3.64;100.00;94948.75;4175682;34;20022;-65
2023/12/06 07:25:29;;;;;;;;;;;;;;;3.63;100.00;94946.38;4172283;34;20023;-65
2023/12/06 07:27:55;;;;;;;;;;;;;;;3.75;100.00;94955.56;4178314;34;20021;-65
2023/12/06 07:30:20;;;;;;;;;;;;;;;3.70;100.00;94954.81;4174374;34;20021;-65
2023/12/06 07:32:45;;;;;;;;;;;;;;;3.89;100.00;94950.63;4178374;34;20076;-65
2023/12/06 07:35:11;;;;;;;;;;;;;;;3.89;100.00;94950.63;4177616;34;20031;-65
2023/12/06 07:37:36;;;;;;;;;;;;;;;3.85;100.00;94948.78;4184149;34;20015;-65
2023/12/06 07:40:10;;;;;;;;;;;;;;;3.89;100.00;94955.87;4180554;34;20013;-65
2023/12/06 07:42:36;;;;;;;;;;;;;;;3.93;100.00;94961.41;4171141;34;20103;-65
2023/12/06 07:45:01;;;;;;;;;;;;;;;3.92;100.00;94958.00;4173740;34;20005;-66
2023/12/06 07:47:26;;;;;;;;;;;;;;;5.98;100.00;94940.44;4148014;34;20022;-66
2023/12/06 07:49:52;;;;;;;;;;;;;;;8.79;100.00;94951.66;4176880;34;20012;-66
2023/12/06 07:52:17;;;;;;;;;;;;;;;9.33;100.00;94959.97;4172073;34;20099;-66
2023/12/06 07:54:43;;;;;;;;;;;;;;;9.72;96.63;94962.09;4174472;34;20063;-66
2023/12/06 07:57:08;;;;;;;;;;;;;;;10.32;87.38;94958.16;4174416;34;20011;-65
2023/12/06 07:59:34;;;;;;;;;;;;;;;8.76;80.84;94972.59;4188178;34;20014;-65
2023/12/06 08:01:59;;;;;;;;;;;;;;;7.90;84.61;94966.72;4185991;34;20043;-64
2023/12/06 08:04:24;;;;;;;;;;;;;;;6.65;89.83;94981.78;4187287;34;20059;-63
2023/12/06 08:06:49;;;;;;;;;;;;;;;6.02;94.68;94979.09;4182720;34;20014;-63
2023/12/06 08:09:17;;;;;;;;;;;;;;;5.78;96.10;94981.56;4171431;34;20068;-65
2023/12/06 08:11:42;;;;;;;;;;;;;;;5.49;98.39;94985.91;4174890;34;20046;-64
2023/12/06 08:14:08;;;;;;;;;;;;;;;5.16;100.00;94989.97;4178885;34;20046;-64
2023/12/06 08:16:33;;;;;;;;;;;;;;;4.85;100.00;94989.22;4180176;34;20013;-65
2023/12/06 08:18:59;;;;;;;;;;;;;;;5.21;100.00;94994.41;4171791;34;20079;-65
2023/12/06 08:21:24;;;;;;;;;;;;;;;5.20;100.00;94996.25;4188123;34;20014;-65
2023/12/06 08:23:49;;;;;;;;;;;;;;;5.35;100.00;95001.47;4177808;34;19997;-65
2023/12/06 08:26:14;;;;;;;;;;;;;;;5.18;100.00;94988.66;4185158;34;20003;-65
2023/12/06 08:28:40;;;;;;;;;;;;;;;5.15;100.00;94998.91;4163698;34;20013;-65
2023/12/06 08:31:08;;;;;;;;;;;;;;;4.90;100.00;94991.06;4173236;34;20069;-65
2023/12/06 08:33:33;;;;;;;;;;;;;;;4.97;100.00;94994.22;4187409;34;20021;-65
2023/12/06 08:35:58;;;;;;;;;;;;;;;4.83;100.00;94992.13;4188039;34;20028;-65
2023/12/06 08:38:24;;;;;;;;;;;;;;;4.89;100.00;94994.75;4166150;34;20050;-64
2023/12/06 08:40:49;;;;;;;;;;;;;;;4.97;100.00;94999.47;4189784;34;20011;-64
2023/12/06 08:43:14;;;;;;;;;;;;;;;5.07;100.00;95004.69;4188786;34;20026;-65
2023/12/06 08:45:39;;;;;;;;;;;;;;;5.08;100.00;95008.91;4167904;34;20002;-64
2023/12/06 08:48:05;;;;;;;;;;;;;;;5.36;100.00;95018.06;4178161;34;20065;-63
2023/12/06 08:50:30;;;;;;;;;;;;;;;5.45;99.62;95011.94;4167230;34;20077;-65
2023/12/06 08:52:55;;;;;;;;;;;;;;;5.23;100.00;95019.38;4185862;34;20050;-64
2023/12/06 08:55:20;;;;;;;;;;;;;;;5.23;100.00;95027.25;4156210;34;20058;-64
2023/12/06 08:57:46;;;;;;;;;;;;;;;5.28;100.00;95021.22;4170869;34;20141;-64
2023/12/06 09:00:12;;;;;;;;;;;;;;;5.35;100.00;95024.37;4155609;34;20022;-64
2023/12/06 09:02:38;;;;;;;;;;;;;;;4.98;100.00;95027.34;4177351;34;20041;-63
2023/12/06 09:05:04;;;;;;;;;;;;;;;5.33;100.00;95027.25;4188032;34;20048;-62
2023/12/06 09:07:29;;;;;;;;;;;;;;;5.26;100.00;95029.38;4177208;34;20009;-63
2023/12/06 09:09:54;;;;;;;;;;;;;;;5.46;100.00;95031.94;4185540;33;20022;-64
2023/12/06 09:12:21;;;;;;;;;;;;;;;5.51;99.28;95034.56;4171979;34;20016;-63
2023/12/06 09:14:46;;;;;;;;;;;;;;;5.39;99.92;95039.34;4163946;34;20027;-63
2023/12/06 09:17:12;;;;;;;;;;;;;;;5.51;99.68;95037.19;4179209;34;20017;-63
2023/12/06 09:19:37;;;;;;;;;;;;;;;5.63;99.11;95041.34;4172650;34;20066;-65
2023/12/06 09:22:05;;;;;;;;;;;;;;;5.61;98.83;95040.88;4173496;34;20093;-64
2023/12/06 09:24:30;;;;;;;;;;;;;;;5.48;99.25;95045.63;4171009;34;20046;-62
2023/12/06 09:26:56;;;;;;;;;;;;;;;5.63;99.57;95051.88;4181586;34;20013;-63
2023/12/06 09:29:21;;;;;;;;;;;;;;;5.39;99.45;95055.13;4174048;34;20070;-63
2023/12/06 09:31:46;;;;;;;;;;;;;;;5.43;100.00;95053.53;4174986;34;20016;-64
2023/12/06 09:34:11;;;;;;;;;;;;;;;5.55;99.76;95047.19;4181797;34;20011;-63
2023/12/06 09:36:36;;;;;;;;;;;;;;;5.82;98.91;95055.50;4169992;34;20009;-63
2023/12/06 09:39:04;;;;;;;;;;;;;;;5.75;98.49;95055.00;4182073;34;20062;-63
2023/12/06 09:41:30;;;;;;;;;;;;;;;5.80;98.87;95058.41;4180830;34;20072;-64
2023/12/06 09:43:56;;;;;;;;;;;;;;;5.50;99.44;95051.41;4170768;34;20015;-66
2023/12/06 09:46:21;;;;;;;;;;;;;;;5.32;100.00;95056.44;4172124;34;20019;-65
2023/12/06 09:48:47;;;;;;;;;;;;;;;5.76;99.33;95059.22;4169323;34;20050;-64
2023/12/06 09:51:13;;;;;;;;;;;;;;;5.70;99.38;95058.44;4173833;34;20006;-65
2023/12/06 09:53:38;;;;;;;;;;;;;;;7.88;100.00;95037.53;4166285;34;20033;-65
2023/12/06 09:56:08;;;;;;;;;;;;;;;10.17;100.00;95040.66;4173407;34;20019;-65
2023/12/06 09:58:33;;;;;;;;;;;;;;;12.83;86.10;95044.16;4173282;34;20013;-65
2023/12/06 10:00:58;;;;;;;;;;;;;;;13.49;69.00;95050.81;4165900;33;20029;-65
2023/12/06 10:03:24;;;;;;;;;;;;;;;14.05;65.76;95051.53;4174578;34;20028;-64
2023/12/06 10:05:59;;;;;;;;;;;;;;;13.12;54.99;95062.13;4172961;34;20002;-63
2023/12/06 10:08:24;;;;;;;;;;;;;;;10.36;63.48;95067.06;4161711;34;20024;-63
2023/12/06 10:11:00;;;;;;;;;;;;;;;8.96;68.75;95067.47;4165063;34;20010;-64
2023/12/06 10:13:32;;;;;;;;;;;;;;;7.88;74.35;95074.50;4165671;34;20002;-64
2023/12/06 10:15:57;;;;;;;;;;;;;;;7.01;78.97;95071.94;4174163;34;20030;-63
2023/12/06 10:18:24;;;;;;;;;;;;;;;6.55;81.37;95072.25;4193221;33;20013;-62
2023/12/06 10:20:49;;;;;;;;;;;;;;;5.94;84.68;95074.44;4169811;33;20141;-63
2023/12/06 10:23:15;;;;;;;;;;;;;;;6.01;84.77;95069.69;4187991;33;20031;-64
2023/12/06 10:25:41;;;;;;;;;;;;;;;6.04;85.56;95063.84;4187761;34;20001;-63
2023/12/06 10:28:06;;;;;;;;;;;;;;;6.13;86.38;95059.59;4172743;34;20021;-63
2023/12/06 10:30:31;;;;;;;;;;;;;;;5.74;86.75;95069.22;4185048;34;20025;-63
2023/12/06 10:32:57;;;;;;;;;;;;;;;5.91;86.71;95051.28;4184913;34;20012;-62
2023/12/06 10:35:25;;;;;;;;;;;;;;;5.78;86.89;95057.91;4173489;33;20042;-62
2023/12/06 10:37:50;;;;;;;;;;;;;;;5.74;87.83;95058.69;4171890;34;20035;-62
2023/12/06 10:40:16;;;;;;;;;;;;;;;5.90;87.81;95059.44;4173555;34;20026;-62
2023/12/06 10:42:45;;;;;;;;;;;;;;;5.80;88.65;95055.78;4173844;34;20006;-63
2023/12/06 10:45:10;;;;;;;;;;;;;;;5.70;88.47;95061.06;4172509;34;20006;-63
2023/12/06 10:47:36;;;;;;;;;;;;;;;5.59;88.02;95061.37;4171303;34;20003;-63
2023/12/06 10:50:03;;;;;;;;;;;;;;;5.64;89.29;95053.47;4175806;34;20017;-64
2023/12/06 10:52:29;;;;;;;;;;;;;;;5.71;88.55;95059.22;4176109;34;20024;-63
2023/12/06 10:54:55;;;;;;;;;;;;;;;5.80;87.79;95049.72;4175959;34;20016;-63
2023/12/06 10:57:23;;;;;;;;;;;;;;;5.70;88.20;95052.38;4176223;33;20030;-63
2023/12/06 10:59:49;;;;;;;;;;;;;;;5.65;88.42;95055.03;4174377;34;20089;-62
2023/12/06 11:02:15;;;;;;;;;;;;;;;5.68;88.38;95059.75;4175701;34;20031;-62
2023/12/06 11:04:50;;;;;;;;;;;;;;;5.66;88.50;95053.97;4168585;34;20085;-65
2023/12/06 11:07:25;;;;;;;;;;;;;;;5.60;89.26;95053.22;4176174;34;20013;-64
2023/12/06 11:10:10;;;;;;;;;;;;;;;5.57;88.62;95058.22;4160064;34;20044;-65
2023/12/06 11:12:51;;;;;;;;;;;;;;;5.73;88.09;95063.16;4187577;34;20015;-63
2023/12/06 11:15:32;;;;;;;;;;;;;;;5.73;87.91;95057.91;4176790;34;20044;-62
2023/12/06 11:18:07;;;;;;;;;;;;;;;5.67;87.94;95060.81;4178682;34;20049;-63
2023/12/06 11:20:33;;;;;;;;;;;;;;;5.57;89.22;95058.22;4189013;34;20047;-63
2023/12/06 11:22:58;;;;;;;;;;;;;;;5.60;88.67;95068.22;4174006;34;20016;-63
2023/12/06 11:25:24;;;;;;;;;;;;;;;5.71;87.49;95061.87;4170315;34;20004;-63
2023/12/06 11:27:49;;;;;;;;;;;;;;;5.68;88.10;95063.19;4177823;34;20021;-63
2023/12/06 11:30:16;;;;;;;;;;;;;;;5.74;87.70;95056.84;4185649;33;20016;-63
2023/12/06 11:32:43;;;;;;;;;;;;;;;5.82;87.34;95050.22;4171967;33;20033;-63
2023/12/06 11:35:08;;;;;;;;;;;;;;;5.94;86.95;95053.38;4171121;34;20099;-63
2023/12/06 11:37:34;;;;;;;;;;;;;;;5.90;86.91;95054.97;4165669;34;20055;-63
2023/12/06 11:40:18;;;;;;;;;;;;;;;5.94;85.92;95049.97;4147562;34;20070;-63
2023/12/06 11:42:55;;;;;;;;;;;;;;;6.16;85.12;95045.13;4177472;34;20038;-63
2023/12/06 11:45:23;;;;;;;;;;;;;;;6.01;85.35;95053.87;4177317;34;20128;-63
2023/12/06 11:47:49;;;;;;;;;;;;;;;6.05;84.74;95054.87;4159997;34;20000;-63
2023/12/06 11:50:14;;;;;;;;;;;;;;;6.03;85.14;95059.63;4159774;34;20059;-63
2023/12/06 11:52:47;;;;;;;;;;;;;;;6.08;84.81;95057.00;4168151;34;20221;-63
2023/12/06 11:55:14;;;;;;;;;;;;;;;5.90;85.03;95060.22;4178104;34;20000;-63
2023/12/06 11:57:58;;;;;;;;;;;;;;;6.06;84.30;95061.72;4189844;33;20046;-62
2023/12/06 12:00:24;;;;;;;;;;;;;;;5.97;85.02;95055.47;4178212;33;20026;-63
2023/12/06 12:02:50;;;;;;;;;;;;;;;6.06;84.57;95059.09;4183268;34;20017;-63
2023/12/06 12:05:15;;;;;;;;;;;;;;;6.00;84.28;95062.84;4173192;34;20031;-63
2023/12/06 12:07:41;;;;;;;;;;;;;;;6.05;84.44;95060.16;4175576;34;20084;-63
2023/12/06 12:10:07;;;;;;;;;;;;;;;6.31;82.96;95057.41;4175700;34;20015;-63
2023/12/06 12:12:38;;;;;;;;;;;;;;;6.13;83.47;95066.72;4176170;34;20344;-63
2023/12/06 12:15:07;;;;;;;;;;;;;;;5.88;84.64;95070.22;4173210;34;20053;-64
2023/12/06 12:17:33;;;;;;;;;;;;;;;6.11;83.93;95063.56;4189120;33;20039;-63
2023/12/06 12:19:59;;;;;;;;;;;;;;;5.98;83.67;95058.91;4190503;33;20032;-64
2023/12/06 12:22:24;;;;;;;;;;;;;;;6.15;83.58;95075.91;4190517;33;20028;-63
2023/12/06 12:24:51;;;;;;;;;;;;;;;6.09;83.75;95068.31;4188908;34;20002;-63
2023/12/06 12:27:18;;;;;;;;;;;;;;;6.05;83.88;95065.41;4189023;34;20021;-63
2023/12/06 12:29:44;;;;;;;;;;;;;;;5.78;84.82;95068.44;4176167;33;20064;-63
2023/12/06 12:32:09;;;;;;;;;;;;;;;5.96;84.28;95068.91;4178726;33;20050;-62
2023/12/06 12:37:06;;;;;;;;;;;;;;;6.37;82.49;95061.59;4406975;31;20028;-63
2023/12/06 12:39:32;;;;;;;;;;;;;;;6.37;82.49;95061.59;4401994;32;20058;-65
2023/12/06 12:41:57;;;;;;;;;;;;;;;5.94;83.58;95063.91;4398580;32;20100;-65
2023/12/06 12:44:22;;;;;;;;;;;;;;;5.98;83.89;95074.69;4398797;32;20030;-63
2023/12/06 12:48:55;;;;;;;;;;;;;;;6.44;82.36;95069.97;4376867;31;20118;-63